sensor_id;sensor_type;location;lat;lon;timestamp;pressure;altitude;pressure_sealevel;temperature;humidity
10462;BME280;5278;42.656;23.374;2023-04-24T00:02:01;94377.75;;;13.49;57.88
10462;BME280;5278;42.656;23.374;2023-04-24T00:04:28;94385.97;;;13.53;57.87
10462;BME280;5278;42.656;23.374;2023-04-24T00:06:57;94373.53;;;13.55;57.71
10462;BME280;5278;42.656;23.374;2023-04-24T00:09:26;94371.13;;;13.53;57.90
10462;BME280;5278;42.656;23.374;2023-04-24T00:11:53;94364.91;;;13.48;58.22
10462;BME280;5278;42.656;23.374;2023-04-24T00:14:21;94373.13;;;13.51;59.73
10462;BME280;5278;42.656;23.374;2023-04-24T00:16:48;94325.31;;;13.31;59.31
10462;BME280;5278;42.656;23.374;2023-04-24T00:19:15;94357.25;;;13.40;58.61
10462;BME280;5278;42.656;23.374;2023-04-24T00:21:42;94347.00;;;13.25;59.62
10462;BME280;5278;42.656;23.374;2023-04-24T00:24:09;94354.59;;;13.26;59.81
10462;BME280;5278;42.656;23.374;2023-04-24T00:26:38;94354.63;;;13.33;60.21
10462;BME280;5278;42.656;23.374;2023-04-24T00:29:04;94357.06;;;13.34;59.95
10462;BME280;5278;42.656;23.374;2023-04-24T00:31:31;94354.00;;;13.18;59.61
10462;BME280;5278;42.656;23.374;2023-04-24T00:34:00;94324.91;;;12.67;60.51
10462;BME280;5278;42.656;23.374;2023-04-24T00:36:27;94358.28;;;12.84;61.03
10462;BME280;5278;42.656;23.374;2023-04-24T00:38:56;94359.63;;;12.74;61.46
10462;BME280;5278;42.656;23.374;2023-04-24T00:41:23;94349.97;;;12.68;61.62
10462;BME280;5278;42.656;23.374;2023-04-24T00:43:52;94347.59;;;12.73;61.50
10462;BME280;5278;42.656;23.374;2023-04-24T00:46:19;94357.03;;;12.80;61.68
10462;BME280;5278;42.656;23.374;2023-04-24T00:48:47;94343.22;;;12.80;62.22
10462;BME280;5278;42.656;23.374;2023-04-24T00:51:14;94362.13;;;12.95;61.49
10462;BME280;5278;42.656;23.374;2023-04-24T00:53:41;94367.13;;;12.97;62.06
10462;BME280;5278;42.656;23.374;2023-04-24T00:56:08;94361.94;;;13.03;61.26
10462;BME280;5278;42.656;23.374;2023-04-24T00:58:35;94355.31;;;13.07;61.32
10462;BME280;5278;42.656;23.374;2023-04-24T01:01:03;94353.13;;;13.11;61.08
10462;BME280;5278;42.656;23.374;2023-04-24T01:03:33;94362.41;;;13.13;62.09
10462;BME280;5278;42.656;23.374;2023-04-24T01:06:02;94365.19;;;13.12;62.05
10462;BME280;5278;42.656;23.374;2023-04-24T01:08:30;94365.63;;;13.22;61.93
10462;BME280;5278;42.656;23.374;2023-04-24T01:10:57;94368.66;;;13.25;61.87
10462;BME280;5278;42.656;23.374;2023-04-24T01:13:24;94362.44;;;13.26;62.00
10462;BME280;5278;42.656;23.374;2023-04-24T01:15:51;94352.22;;;13.25;62.07
10462;BME280;5278;42.656;23.374;2023-04-24T01:18:20;94344.56;;;13.23;61.22
10462;BME280;5278;42.656;23.374;2023-04-24T01:20:49;94351.19;;;13.26;61.38
10462;BME280;5278;42.656;23.374;2023-04-24T01:23:19;94351.41;;;13.31;61.81
10462;BME280;5278;42.656;23.374;2023-04-24T01:25:46;94339.38;;;13.36;61.94
10462;BME280;5278;42.656;23.374;2023-04-24T01:28:14;94340.75;;;13.26;62.82
10462;BME280;5278;42.656;23.374;2023-04-24T01:30:41;94338.38;;;13.24;63.28
10462;BME280;5278;42.656;23.374;2023-04-24T01:33:08;94326.91;;;13.25;63.43
10462;BME280;5278;42.656;23.374;2023-04-24T01:35:36;94325.91;;;13.26;62.57
10462;BME280;5278;42.656;23.374;2023-04-24T01:38:03;94332.53;;;13.22;63.35
10462;BME280;5278;42.656;23.374;2023-04-24T01:40:31;94325.47;;;13.10;63.95
10462;BME280;5278;42.656;23.374;2023-04-24T01:42:58;94326.03;;;13.05;64.14
10462;BME280;5278;42.656;23.374;2023-04-24T01:45:25;94324.22;;;13.06;64.54
10462;BME280;5278;42.656;23.374;2023-04-24T01:47:52;94306.41;;;13.09;64.42
10462;BME280;5278;42.656;23.374;2023-04-24T01:50:19;94320.22;;;13.03;64.42
10462;BME280;5278;42.656;23.374;2023-04-24T01:52:46;94317.00;;;12.94;64.58
10462;BME280;5278;42.656;23.374;2023-04-24T01:55:13;94321.19;;;12.95;65.23
10462;BME280;5278;42.656;23.374;2023-04-24T01:57:41;94320.78;;;12.92;65.18
10462;BME280;5278;42.656;23.374;2023-04-24T02:00:09;94312.94;;;12.85;65.55
10462;BME280;5278;42.656;23.374;2023-04-24T02:02:37;94309.31;;;12.86;65.65
10462;BME280;5278;42.656;23.374;2023-04-24T02:05:06;94317.16;;;12.80;65.74
10462;BME280;5278;42.656;23.374;2023-04-24T02:07:33;94308.91;;;12.76;65.82
10462;BME280;5278;42.656;23.374;2023-04-24T02:10:00;94314.50;;;12.73;66.62
10462;BME280;5278;42.656;23.374;2023-04-24T02:12:27;94299.88;;;12.72;67.14
10462;BME280;5278;42.656;23.374;2023-04-24T02:14:55;94298.81;;;12.60;67.23
10462;BME280;5278;42.656;23.374;2023-04-24T02:17:22;94309.25;;;12.67;67.70
10462;BME280;5278;42.656;23.374;2023-04-24T02:19:49;94300.63;;;12.66;67.80
10462;BME280;5278;42.656;23.374;2023-04-24T02:22:16;94303.03;;;12.61;67.85
10462;BME280;5278;42.656;23.374;2023-04-24T02:24:43;94310.38;;;12.44;68.69
10462;BME280;5278;42.656;23.374;2023-04-24T02:27:10;94309.34;;;12.39;69.41
10462;BME280;5278;42.656;23.374;2023-04-24T02:29:37;94303.91;;;12.34;69.61
10462;BME280;5278;42.656;23.374;2023-04-24T02:32:05;94310.31;;;12.31;69.77
10462;BME280;5278;42.656;23.374;2023-04-24T02:34:32;94309.44;;;12.18;70.44
10462;BME280;5278;42.656;23.374;2023-04-24T02:36:59;94308.41;;;12.12;70.82
10462;BME280;5278;42.656;23.374;2023-04-24T02:39:26;94308.81;;;12.16;71.04
10462;BME280;5278;42.656;23.374;2023-04-24T02:41:52;94300.81;;;12.17;70.77
10462;BME280;5278;42.656;23.374;2023-04-24T02:44:19;94288.41;;;12.19;70.63
10462;BME280;5278;42.656;23.374;2023-04-24T02:46:47;94285.03;;;12.25;70.25
10462;BME280;5278;42.656;23.374;2023-04-24T02:49:15;94286.00;;;12.18;70.23
10462;BME280;5278;42.656;23.374;2023-04-24T02:51:42;94289.63;;;12.23;69.93
10462;BME280;5278;42.656;23.374;2023-04-24T02:54:09;94289.84;;;12.28;69.81
10462;BME280;5278;42.656;23.374;2023-04-24T02:56:36;94286.03;;;12.24;69.93
10462;BME280;5278;42.656;23.374;2023-04-24T02:59:03;94288.06;;;12.29;69.56
10462;BME280;5278;42.656;23.374;2023-04-24T03:01:30;94289.44;;;12.25;69.97
10462;BME280;5278;42.656;23.374;2023-04-24T03:03:57;94290.03;;;12.27;69.82
10462;BME280;5278;42.656;23.374;2023-04-24T03:06:25;94294.25;;;12.28;69.45
10462;BME280;5278;42.656;23.374;2023-04-24T03:08:53;94297.25;;;12.25;69.67
10462;BME280;5278;42.656;23.374;2023-04-24T03:11:20;94296.81;;;12.21;69.87
10462;BME280;5278;42.656;23.374;2023-04-24T03:13:47;94300.06;;;12.23;69.85
10462;BME280;5278;42.656;23.374;2023-04-24T03:16:14;94290.25;;;12.25;69.80
10462;BME280;5278;42.656;23.374;2023-04-24T03:18:41;94296.88;;;12.28;69.56
10462;BME280;5278;42.656;23.374;2023-04-24T03:21:08;94300.69;;;12.32;69.95
10462;BME280;5278;42.656;23.374;2023-04-24T03:23:36;94302.69;;;12.30;70.16
10462;BME280;5278;42.656;23.374;2023-04-24T03:26:03;94300.75;;;12.11;70.88
10462;BME280;5278;42.656;23.374;2023-04-24T03:28:30;94303.75;;;12.07;71.54
10462;BME280;5278;42.656;23.374;2023-04-24T03:30:57;94304.75;;;12.06;71.93
10462;BME280;5278;42.656;23.374;2023-04-24T03:33:24;94306.38;;;12.07;71.89
10462;BME280;5278;42.656;23.374;2023-04-24T03:35:51;94209.25;;;11.45;72.28
10462;BME280;5278;42.656;23.374;2023-04-24T03:38:18;94306.91;;;11.96;73.25
10462;BME280;5278;42.656;23.374;2023-04-24T03:40:46;94300.09;;;11.95;73.77
10462;BME280;5278;42.656;23.374;2023-04-24T03:43:13;94298.09;;;11.97;73.51
10462;BME280;5278;42.656;23.374;2023-04-24T03:45:40;94305.31;;;11.95;73.82
10462;BME280;5278;42.656;23.374;2023-04-24T03:48:07;94301.44;;;11.91;73.80
10462;BME280;5278;42.656;23.374;2023-04-24T03:50:34;94301.44;;;11.91;74.21
10462;BME280;5278;42.656;23.374;2023-04-24T03:53:00;94306.31;;;12.01;74.33
10462;BME280;5278;42.656;23.374;2023-04-24T03:55:27;94302.53;;;12.03;73.89
10462;BME280;5278;42.656;23.374;2023-04-24T03:57:56;94303.81;;;12.14;73.86
10462;BME280;5278;42.656;23.374;2023-04-24T04:00:23;94302.06;;;12.28;73.24
10462;BME280;5278;42.656;23.374;2023-04-24T04:02:51;94297.13;;;12.46;72.57
10462;BME280;5278;42.656;23.374;2023-04-24T04:05:18;94295.84;;;12.76;70.87
10462;BME280;5278;42.656;23.374;2023-04-24T04:07:45;94299.56;;;13.08;69.78
10462;BME280;5278;42.656;23.374;2023-04-24T04:10:12;94306.47;;;13.29;68.52
10462;BME280;5278;42.656;23.374;2023-04-24T04:12:38;94310.69;;;13.56;66.73
10462;BME280;5278;42.656;23.374;2023-04-24T04:15:07;94313.91;;;13.71;65.64
10462;BME280;5278;42.656;23.374;2023-04-24T04:17:34;94307.06;;;13.70;65.77
10462;BME280;5278;42.656;23.374;2023-04-24T04:20:01;94308.88;;;13.76;65.94
10462;BME280;5278;42.656;23.374;2023-04-24T04:22:32;94306.47;;;13.82;65.92
10462;BME280;5278;42.656;23.374;2023-04-24T04:24:59;94304.25;;;13.98;65.33
10462;BME280;5278;42.656;23.374;2023-04-24T04:27:26;94302.41;;;14.12;63.92
10462;BME280;5278;42.656;23.374;2023-04-24T04:29:53;94323.28;;;14.32;62.41
10462;BME280;5278;42.656;23.374;2023-04-24T04:32:23;94306.81;;;14.44;61.65
10462;BME280;5278;42.656;23.374;2023-04-24T04:34:50;94308.56;;;14.50;60.21
10462;BME280;5278;42.656;23.374;2023-04-24T04:37:18;94309.38;;;14.51;59.62
10462;BME280;5278;42.656;23.374;2023-04-24T04:39:46;94228.28;;;14.06;61.68
10462;BME280;5278;42.656;23.374;2023-04-24T04:42:13;94310.09;;;14.71;60.33
10462;BME280;5278;42.656;23.374;2023-04-24T04:44:41;94313.91;;;14.82;58.98
10462;BME280;5278;42.656;23.374;2023-04-24T04:47:08;94313.28;;;14.80;59.89
10462;BME280;5278;42.656;23.374;2023-04-24T04:49:37;94322.38;;;14.71;60.25
10462;BME280;5278;42.656;23.374;2023-04-24T04:52:05;94322.38;;;14.71;60.31
10462;BME280;5278;42.656;23.374;2023-04-24T04:54:31;94333.44;;;14.79;59.75
10462;BME280;5278;42.656;23.374;2023-04-24T04:56:58;94340.47;;;14.79;59.35
10462;BME280;5278;42.656;23.374;2023-04-24T04:59:26;94324.97;;;14.77;59.00
10462;BME280;5278;42.656;23.374;2023-04-24T05:01:53;94343.13;;;14.65;58.56
10462;BME280;5278;42.656;23.374;2023-04-24T05:04:19;94340.28;;;14.74;59.21
10462;BME280;5278;42.656;23.374;2023-04-24T05:06:48;94337.63;;;14.80;57.68
10462;BME280;5278;42.656;23.374;2023-04-24T05:09:16;94334.84;;;14.75;57.57
10462;BME280;5278;42.656;23.374;2023-04-24T05:11:43;94327.03;;;14.69;58.55
10462;BME280;5278;42.656;23.374;2023-04-24T05:14:10;94340.88;;;14.76;58.77
10462;BME280;5278;42.656;23.374;2023-04-24T05:16:38;94347.91;;;14.82;58.77
10462;BME280;5278;42.656;23.374;2023-04-24T05:19:04;94341.66;;;14.89;57.98
10462;BME280;5278;42.656;23.374;2023-04-24T05:21:31;94334.81;;;14.88;56.59
10462;BME280;5278;42.656;23.374;2023-04-24T05:24:00;94339.81;;;14.90;56.26
10462;BME280;5278;42.656;23.374;2023-04-24T05:26:26;94338.00;;;14.90;56.70
10462;BME280;5278;42.656;23.374;2023-04-24T05:28:53;94335.38;;;14.90;55.97
10462;BME280;5278;42.656;23.374;2023-04-24T05:31:20;94337.16;;;15.03;56.22
10462;BME280;5278;42.656;23.374;2023-04-24T05:33:47;94327.78;;;15.20;55.20
10462;BME280;5278;42.656;23.374;2023-04-24T05:36:14;94330.50;;;15.38;54.46
10462;BME280;5278;42.656;23.374;2023-04-24T05:38:41;94336.09;;;15.48;53.67
10462;BME280;5278;42.656;23.374;2023-04-24T05:41:09;94331.97;;;15.66;52.68
10462;BME280;5278;42.656;23.374;2023-04-24T05:43:36;94328.69;;;15.95;52.06
10462;BME280;5278;42.656;23.374;2023-04-24T05:46:03;94328.94;;;16.36;50.75
10462;BME280;5278;42.656;23.374;2023-04-24T05:48:30;94333.19;;;16.92;48.97
10462;BME280;5278;42.656;23.374;2023-04-24T05:50:57;94326.94;;;17.53;47.40
10462;BME280;5278;42.656;23.374;2023-04-24T05:53:24;94332.56;;;17.98;46.18
10462;BME280;5278;42.656;23.374;2023-04-24T05:55:50;94332.53;;;18.44;44.95
10462;BME280;5278;42.656;23.374;2023-04-24T05:58:19;94326.91;;;18.87;43.37
10462;BME280;5278;42.656;23.374;2023-04-24T06:00:45;94318.72;;;19.41;42.07
10462;BME280;5278;42.656;23.374;2023-04-24T06:03:13;94322.88;;;19.98;40.59
10462;BME280;5278;42.656;23.374;2023-04-24T06:05:40;94323.84;;;20.42;38.92
10462;BME280;5278;42.656;23.374;2023-04-24T06:08:07;94315.56;;;20.72;38.24
10462;BME280;5278;42.656;23.374;2023-04-24T06:10:34;94318.38;;;20.87;38.44
10462;BME280;5278;42.656;23.374;2023-04-24T06:13:00;94316.47;;;21.04;38.03
10462;BME280;5278;42.656;23.374;2023-04-24T06:15:30;94338.06;;;21.18;45.24
10462;BME280;5278;42.656;23.374;2023-04-24T06:17:57;94319.06;;;21.97;43.29
10462;BME280;5278;42.656;23.374;2023-04-24T06:20:24;94309.78;;;22.73;37.54
10462;BME280;5278;42.656;23.374;2023-04-24T06:22:51;94315.34;;;23.39;34.67
10462;BME280;5278;42.656;23.374;2023-04-24T06:25:18;94306.47;;;24.06;33.67
10462;BME280;5278;42.656;23.374;2023-04-24T06:27:45;94308.25;;;24.71;32.75
10462;BME280;5278;42.656;23.374;2023-04-24T06:30:12;94309.84;;;25.46;31.44
10462;BME280;5278;42.656;23.374;2023-04-24T06:32:40;94308.78;;;25.91;30.56
10462;BME280;5278;42.656;23.374;2023-04-24T06:35:08;94311.22;;;26.27;29.76
10462;BME280;5278;42.656;23.374;2023-04-24T06:37:35;94309.91;;;26.53;29.06
10462;BME280;5278;42.656;23.374;2023-04-24T06:40:02;94295.63;;;26.68;28.93
10462;BME280;5278;42.656;23.374;2023-04-24T06:42:29;94304.34;;;26.78;28.95
10462;BME280;5278;42.656;23.374;2023-04-24T06:44:56;94296.63;;;27.01;28.53
10462;BME280;5278;42.656;23.374;2023-04-24T06:47:23;94310.25;;;27.23;34.28
10462;BME280;5278;42.656;23.374;2023-04-24T06:49:51;94309.78;;;27.39;32.88
10462;BME280;5278;42.656;23.374;2023-04-24T06:52:18;94320.84;;;27.52;33.71
10462;BME280;5278;42.656;23.374;2023-04-24T06:54:45;94312.34;;;27.50;34.80
10462;BME280;5278;42.656;23.374;2023-04-24T06:57:12;94317.47;;;27.65;32.59
10462;BME280;5278;42.656;23.374;2023-04-24T06:59:39;94309.09;;;27.71;34.24
10462;BME280;5278;42.656;23.374;2023-04-24T07:02:06;94296.59;;;27.67;28.94
10462;BME280;5278;42.656;23.374;2023-04-24T07:04:33;94299.28;;;28.04;27.89
10462;BME280;5278;42.656;23.374;2023-04-24T07:07:02;94291.13;;;28.14;27.42
10462;BME280;5278;42.656;23.374;2023-04-24T07:09:30;94295.28;;;28.20;27.22
10462;BME280;5278;42.656;23.374;2023-04-24T07:11:57;94297.59;;;28.08;27.44
10462;BME280;5278;42.656;23.374;2023-04-24T07:14:24;94282.75;;;27.65;27.16
10462;BME280;5278;42.656;23.374;2023-04-24T07:16:51;94306.06;;;27.59;27.27
10462;BME280;5278;42.656;23.374;2023-04-24T07:19:17;94293.69;;;27.45;27.36
10462;BME280;5278;42.656;23.374;2023-04-24T07:21:44;94299.78;;;27.26;27.79
10462;BME280;5278;42.656;23.374;2023-04-24T07:24:13;94296.34;;;27.02;27.89
10462;BME280;5278;42.656;23.374;2023-04-24T07:26:39;94288.06;;;27.04;27.88
10462;BME280;5278;42.656;23.374;2023-04-24T07:29:06;94283.53;;;27.65;26.84
10462;BME280;5278;42.656;23.374;2023-04-24T07:31:33;94285.03;;;28.41;26.36
10462;BME280;5278;42.656;23.374;2023-04-24T07:34:00;94268.41;;;29.04;25.87
10462;BME280;5278;42.656;23.374;2023-04-24T07:36:27;94266.88;;;29.75;25.25
10462;BME280;5278;42.656;23.374;2023-04-24T07:38:54;94271.59;;;30.36;24.51
10462;BME280;5278;42.656;23.374;2023-04-24T07:41:24;94269.53;;;30.95;23.04
10462;BME280;5278;42.656;23.374;2023-04-24T07:43:50;94263.72;;;31.01;23.08
10462;BME280;5278;42.656;23.374;2023-04-24T07:46:18;94272.78;;;31.05;23.25
10462;BME280;5278;42.656;23.374;2023-04-24T07:48:44;94262.25;;;31.35;23.00
10462;BME280;5278;42.656;23.374;2023-04-24T07:51:13;94260.91;;;31.80;22.75
10462;BME280;5278;42.656;23.374;2023-04-24T07:53:40;94253.16;;;31.79;21.58
10462;BME280;5278;42.656;23.374;2023-04-24T07:56:07;94265.66;;;31.75;22.15
10462;BME280;5278;42.656;23.374;2023-04-24T07:58:36;94246.53;;;32.02;21.84
10462;BME280;5278;42.656;23.374;2023-04-24T08:01:02;94257.38;;;32.48;21.68
10462;BME280;5278;42.656;23.374;2023-04-24T08:03:29;94251.19;;;32.65;21.45
10462;BME280;5278;42.656;23.374;2023-04-24T08:05:56;94254.16;;;33.10;20.95
10462;BME280;5278;42.656;23.374;2023-04-24T08:08:23;94246.84;;;33.19;20.74
10462;BME280;5278;42.656;23.374;2023-04-24T08:10:50;94252.59;;;33.39;20.61
10462;BME280;5278;42.656;23.374;2023-04-24T08:13:17;94254.16;;;33.40;20.14
10462;BME280;5278;42.656;23.374;2023-04-24T08:15:45;94248.44;;;33.12;20.65
10462;BME280;5278;42.656;23.374;2023-04-24T08:18:12;94250.09;;;33.54;20.34
10462;BME280;5278;42.656;23.374;2023-04-24T08:20:41;94242.16;;;33.99;19.84
10462;BME280;5278;42.656;23.374;2023-04-24T08:23:07;94236.34;;;34.30;19.76
10462;BME280;5278;42.656;23.374;2023-04-24T08:25:34;94234.50;;;34.55;19.59
10462;BME280;5278;42.656;23.374;2023-04-24T08:28:02;94163.22;;;34.23;19.55
10462;BME280;5278;42.656;23.374;2023-04-24T08:30:29;94237.19;;;35.24;19.03
10462;BME280;5278;42.656;23.374;2023-04-24T08:32:58;94233.06;;;36.07;18.66
10462;BME280;5278;42.656;23.374;2023-04-24T08:35:25;94236.31;;;36.12;18.22
10462;BME280;5278;42.656;23.374;2023-04-24T08:37:52;94224.13;;;36.46;17.90
10462;BME280;5278;42.656;23.374;2023-04-24T08:40:22;94237.56;;;36.58;17.84
10462;BME280;5278;42.656;23.374;2023-04-24T08:42:54;94232.66;;;35.93;18.34
10462;BME280;5278;42.656;23.374;2023-04-24T08:45:21;94222.28;;;36.50;17.83
10462;BME280;5278;42.656;23.374;2023-04-24T08:47:48;94209.47;;;37.10;17.31
10462;BME280;5278;42.656;23.374;2023-04-24T08:50:17;94216.50;;;37.46;16.65
10462;BME280;5278;42.656;23.374;2023-04-24T08:52:44;94207.34;;;37.89;16.94
10462;BME280;5278;42.656;23.374;2023-04-24T08:55:11;94209.16;;;38.20;16.18
10462;BME280;5278;42.656;23.374;2023-04-24T08:57:37;94145.00;;;37.73;16.32
10462;BME280;5278;42.656;23.374;2023-04-24T09:00:06;94102.63;;;37.49;16.33
10462;BME280;5278;42.656;23.374;2023-04-24T09:02:34;94211.03;;;38.58;15.88
10462;BME280;5278;42.656;23.374;2023-04-24T09:05:01;94193.94;;;39.03;15.90
10462;BME280;5278;42.656;23.374;2023-04-24T09:07:32;94195.97;;;39.62;15.29
10462;BME280;5278;42.656;23.374;2023-04-24T09:10:02;94192.69;;;39.23;15.35
10462;BME280;5278;42.656;23.374;2023-04-24T09:12:29;94188.06;;;39.27;15.42
10462;BME280;5278;42.656;23.374;2023-04-24T09:14:56;94186.91;;;38.56;16.02
10462;BME280;5278;42.656;23.374;2023-04-24T09:17:24;94186.81;;;38.49;15.57
10462;BME280;5278;42.656;23.374;2023-04-24T09:19:52;94176.94;;;37.80;16.28
10462;BME280;5278;42.656;23.374;2023-04-24T09:22:20;94171.50;;;37.80;16.21
10462;BME280;5278;42.656;23.374;2023-04-24T09:24:59;94170.03;;;37.13;17.05
10462;BME280;5278;42.656;23.374;2023-04-24T09:27:28;94163.81;;;36.49;17.41
10462;BME280;5278;42.656;23.374;2023-04-24T09:29:55;94161.81;;;35.63;18.67
10462;BME280;5278;42.656;23.374;2023-04-24T09:32:23;94170.63;;;34.83;19.41
10462;BME280;5278;42.656;23.374;2023-04-24T09:35:05;94157.19;;;34.26;20.09
10462;BME280;5278;42.656;23.374;2023-04-24T09:37:36;94156.88;;;34.07;19.51
10462;BME280;5278;42.656;23.374;2023-04-24T09:40:12;94153.22;;;33.91;19.78
10462;BME280;5278;42.656;23.374;2023-04-24T09:42:40;94162.19;;;34.15;19.73
10462;BME280;5278;42.656;23.374;2023-04-24T09:45:10;94152.16;;;34.61;19.36
10462;BME280;5278;42.656;23.374;2023-04-24T09:47:37;94143.38;;;34.88;19.29
10462;BME280;5278;42.656;23.374;2023-04-24T09:50:13;94151.91;;;35.15;18.49
10462;BME280;5278;42.656;23.374;2023-04-24T09:52:41;94151.66;;;35.32;18.44
10462;BME280;5278;42.656;23.374;2023-04-24T09:55:16;94141.94;;;36.11;18.25
10462;BME280;5278;42.656;23.374;2023-04-24T09:57:48;94131.94;;;36.74;17.08
10462;BME280;5278;42.656;23.374;2023-04-24T10:00:18;94131.09;;;37.21;16.94
10462;BME280;5278;42.656;23.374;2023-04-24T10:02:50;94135.03;;;37.07;17.17
10462;BME280;5278;42.656;23.374;2023-04-24T10:05:17;94136.56;;;36.74;17.64
10462;BME280;5278;42.656;23.374;2023-04-24T10:07:44;94126.75;;;36.53;17.73
10462;BME280;5278;42.656;23.374;2023-04-24T10:10:11;94121.88;;;36.59;17.13
10462;BME280;5278;42.656;23.374;2023-04-24T10:12:40;94119.31;;;37.32;16.83
10462;BME280;5278;42.656;23.374;2023-04-24T10:15:08;94120.97;;;38.37;16.07
10462;BME280;5278;42.656;23.374;2023-04-24T10:17:38;94120.69;;;38.64;15.72
10462;BME280;5278;42.656;23.374;2023-04-24T10:20:06;94111.22;;;38.81;15.70
10462;BME280;5278;42.656;23.374;2023-04-24T10:22:33;94123.13;;;38.73;15.46
10462;BME280;5278;42.656;23.374;2023-04-24T10:25:03;94098.88;;;37.96;16.31
10462;BME280;5278;42.656;23.374;2023-04-24T10:27:31;94097.09;;;36.92;17.04
10462;BME280;5278;42.656;23.374;2023-04-24T10:30:01;94097.25;;;36.64;17.44
10462;BME280;5278;42.656;23.374;2023-04-24T10:32:28;94093.00;;;36.82;16.78
10462;BME280;5278;42.656;23.374;2023-04-24T10:34:55;94095.34;;;37.34;16.30
10462;BME280;5278;42.656;23.374;2023-04-24T10:37:23;94095.34;;;37.73;16.27
10462;BME280;5278;42.656;23.374;2023-04-24T10:39:50;94092.50;;;37.66;16.12
10462;BME280;5278;42.656;23.374;2023-04-24T10:42:20;94086.91;;;37.39;16.02
10462;BME280;5278;42.656;23.374;2023-04-24T10:44:47;94078.38;;;37.02;16.51
10462;BME280;5278;42.656;23.374;2023-04-24T10:47:16;94072.41;;;36.78;16.45
10462;BME280;5278;42.656;23.374;2023-04-24T10:49:43;94083.34;;;36.34;16.48
10462;BME280;5278;42.656;23.374;2023-04-24T10:52:10;94075.38;;;35.38;17.28
10462;BME280;5278;42.656;23.374;2023-04-24T10:54:42;94068.44;;;34.49;17.84
10462;BME280;5278;42.656;23.374;2023-04-24T10:57:27;94070.47;;;34.76;18.06
10462;BME280;5278;42.656;23.374;2023-04-24T11:00:16;94063.03;;;34.25;18.45
10462;BME280;5278;42.656;23.374;2023-04-24T11:02:47;94053.44;;;34.15;17.97
10462;BME280;5278;42.656;23.374;2023-04-24T11:05:18;94061.03;;;34.70;18.00
10462;BME280;5278;42.656;23.374;2023-04-24T11:08:10;94051.69;;;33.74;18.51
10462;BME280;5278;42.656;23.374;2023-04-24T11:10:44;94054.00;;;32.68;19.06
10462;BME280;5278;42.656;23.374;2023-04-24T11:13:14;94052.53;;;32.03;20.24
10462;BME280;5278;42.656;23.374;2023-04-24T11:15:41;94046.53;;;31.51;20.67
10462;BME280;5278;42.656;23.374;2023-04-24T11:18:14;94047.03;;;30.93;21.35
10462;BME280;5278;42.656;23.374;2023-04-24T11:20:42;94045.66;;;30.22;21.26
10462;BME280;5278;42.656;23.374;2023-04-24T11:23:12;94037.44;;;29.48;21.86
10462;BME280;5278;42.656;23.374;2023-04-24T11:25:39;94043.84;;;28.80;22.79
10462;BME280;5278;42.656;23.374;2023-04-24T11:28:07;94055.50;;;28.21;23.65
10462;BME280;5278;42.656;23.374;2023-04-24T11:30:41;94073.28;;;27.71;24.70
10462;BME280;5278;42.656;23.374;2023-04-24T11:33:08;94083.41;;;26.85;26.31
10462;BME280;5278;42.656;23.374;2023-04-24T11:35:39;94092.13;;;26.06;28.21
10462;BME280;5278;42.656;23.374;2023-04-24T11:38:07;94087.78;;;25.34;31.68
10462;BME280;5278;42.656;23.374;2023-04-24T11:40:34;94098.84;;;24.68;33.63
10462;BME280;5278;42.656;23.374;2023-04-24T11:43:01;94102.28;;;24.19;32.33
10462;BME280;5278;42.656;23.374;2023-04-24T11:45:30;94098.56;;;24.05;32.67
10462;BME280;5278;42.656;23.374;2023-04-24T11:47:57;94100.50;;;23.84;31.83
10462;BME280;5278;42.656;23.374;2023-04-24T11:50:26;94106.63;;;23.70;31.62
10462;BME280;5278;42.656;23.374;2023-04-24T11:52:55;94033.72;;;23.01;33.21
10462;BME280;5278;42.656;23.374;2023-04-24T11:55:24;94113.78;;;23.34;36.29
10462;BME280;5278;42.656;23.374;2023-04-24T11:57:53;94096.28;;;22.97;37.27
10462;BME280;5278;42.656;23.374;2023-04-24T12:00:23;94086.72;;;23.22;38.16
10462;BME280;5278;42.656;23.374;2023-04-24T12:02:51;94081.41;;;23.42;34.76
10462;BME280;5278;42.656;23.374;2023-04-24T12:05:19;94064.97;;;23.70;33.86
10462;BME280;5278;42.656;23.374;2023-04-24T12:07:46;94071.78;;;23.96;32.98
10462;BME280;5278;42.656;23.374;2023-04-24T12:10:20;94066.44;;;24.01;32.08
10462;BME280;5278;42.656;23.374;2023-04-24T12:12:47;94069.66;;;23.93;32.40
10462;BME280;5278;42.656;23.374;2023-04-24T12:15:16;94059.06;;;23.88;32.44
10462;BME280;5278;42.656;23.374;2023-04-24T12:17:43;94056.38;;;23.98;32.11
10462;BME280;5278;42.656;23.374;2023-04-24T12:20:12;94054.72;;;24.13;31.58
10462;BME280;5278;42.656;23.374;2023-04-24T12:22:43;94049.38;;;24.28;32.11
10462;BME280;5278;42.656;23.374;2023-04-24T12:25:12;94050.47;;;24.22;33.16
10462;BME280;5278;42.656;23.374;2023-04-24T12:27:40;94061.84;;;24.27;34.11
10462;BME280;5278;42.656;23.374;2023-04-24T12:30:11;94056.56;;;24.22;33.77
10462;BME280;5278;42.656;23.374;2023-04-24T12:32:41;94043.38;;;23.92;33.77
10462;BME280;5278;42.656;23.374;2023-04-24T12:35:09;94038.75;;;23.48;34.07
10462;BME280;5278;42.656;23.374;2023-04-24T12:37:36;94023.16;;;22.96;35.41
10462;BME280;5278;42.656;23.374;2023-04-24T12:40:06;94037.59;;;22.28;36.50
10462;BME280;5278;42.656;23.374;2023-04-24T12:42:34;94035.00;;;21.71;37.63
10462;BME280;5278;42.656;23.374;2023-04-24T12:45:05;94028.72;;;21.35;38.76
10462;BME280;5278;42.656;23.374;2023-04-24T12:47:33;94019.41;;;21.27;39.05
10462;BME280;5278;42.656;23.374;2023-04-24T12:50:02;94015.03;;;21.06;38.94
10462;BME280;5278;42.656;23.374;2023-04-24T12:52:30;94001.25;;;21.04;38.40
10462;BME280;5278;42.656;23.374;2023-04-24T12:54:58;93999.44;;;21.10;38.74
10462;BME280;5278;42.656;23.374;2023-04-24T12:57:26;93987.66;;;21.22;38.44
10462;BME280;5278;42.656;23.374;2023-04-24T12:59:54;93996.19;;;21.34;38.20
10462;BME280;5278;42.656;23.374;2023-04-24T13:02:23;93978.88;;;21.64;37.55
10462;BME280;5278;42.656;23.374;2023-04-24T13:04:50;93978.69;;;21.80;36.98